createdAt,value
2022-08-20T00:02:10.610Z,5.57
2022-08-20T00:04:55.766Z,4.90
2022-08-20T00:07:41.643Z,5.13
2022-08-20T00:10:28.592Z,4.97
2022-08-20T00:13:18.236Z,4.95
2022-08-20T00:16:04.979Z,5.47
2022-08-20T00:18:51.039Z,5.10
2022-08-20T00:21:36.577Z,5.70
2022-08-20T00:24:21.973Z,5.72
2022-08-20T00:27:07.364Z,4.97
2022-08-20T00:29:52.674Z,5.45
2022-08-20T00:32:53.211Z,5.15
2022-08-20T00:35:42.263Z,5.85
2022-08-20T00:38:27.374Z,5.50
2022-08-20T00:41:19.256Z,6.13
2022-08-20T00:44:21.942Z,5.78
2022-08-20T00:47:09.169Z,6.43
2022-08-20T00:49:54.317Z,7.03
2022-08-20T00:52:42.815Z,6.63
2022-08-20T00:55:36.408Z,7.03
2022-08-20T00:58:22.049Z,6.97
2022-08-20T01:01:09.410Z,8.45
2022-08-20T01:03:56.507Z,7.38
2022-08-20T01:06:42.315Z,7.88
2022-08-20T01:09:33.526Z,7.57
2022-08-20T01:12:33.659Z,7.55
2022-08-20T01:15:23.517Z,7.30
2022-08-20T01:18:25.043Z,7.85
2022-08-20T01:21:10.895Z,7.47
2022-08-20T01:23:59.244Z,7.70
2022-08-20T01:26:49.119Z,8.00
2022-08-20T01:29:39.595Z,8.70
2022-08-20T01:32:24.783Z,8.27
2022-08-20T01:35:10.490Z,7.50
2022-08-20T01:37:55.862Z,7.80
2022-08-20T01:41:10.490Z,8.60
2022-08-20T01:43:57.151Z,7.90
2022-08-20T01:46:46.830Z,7.68
2022-08-20T01:49:35.366Z,7.88
2022-08-20T01:52:49.323Z,7.80
2022-08-20T01:55:35.268Z,8.05
2022-08-20T01:58:21.090Z,7.88
2022-08-20T02:01:06.352Z,8.27
2022-08-20T02:03:52.135Z,8.27
2022-08-20T02:06:42.327Z,8.43
2022-08-20T02:09:42.634Z,8.63
2022-08-20T02:12:27.758Z,8.70
2022-08-20T02:15:13.851Z,8.18
2022-08-20T02:17:58.845Z,7.95
2022-08-20T02:20:45.110Z,8.45
2022-08-20T02:23:30.010Z,7.75
2022-08-20T02:26:18.999Z,7.65
2022-08-20T02:29:07.769Z,8.40
2022-08-20T02:32:24.210Z,8.63
2022-08-20T02:35:02.208Z,9.68
2022-08-20T02:37:47.323Z,9.20
2022-08-20T02:40:33.215Z,9.55
2022-08-20T02:43:21.314Z,9.40
2022-08-20T02:46:07.540Z,9.90
2022-08-20T02:48:52.693Z,10.05
2022-08-20T02:51:38.092Z,11.43
2022-08-20T02:54:24.303Z,9.63
2022-08-20T02:57:14.738Z,10.30
2022-08-20T03:00:00.309Z,9.88
2022-08-20T03:02:45.762Z,9.50
2022-08-20T03:05:31.382Z,8.32
2022-08-20T03:08:17.767Z,10.05
2022-08-20T03:11:04.609Z,9.25
2022-08-20T03:13:50.069Z,9.00
2022-08-20T03:16:35.394Z,8.60
2022-08-20T03:19:21.142Z,9.18
2022-08-20T03:22:06.508Z,8.88
2022-08-20T03:24:51.864Z,9.05
2022-08-20T03:27:39.411Z,9.18
2022-08-20T03:30:27.130Z,9.73
2022-08-20T03:33:12.219Z,9.23
2022-08-20T03:35:58.743Z,10.25
2022-08-20T03:38:44.095Z,10.70
2022-08-20T03:41:29.627Z,10.80
2022-08-20T03:44:14.757Z,9.40
2022-08-20T03:47:00.180Z,10.48
2022-08-20T03:49:46.282Z,9.30
2022-08-20T03:52:31.977Z,8.55
2022-08-20T03:55:17.177Z,8.50
2022-08-20T03:58:06.960Z,8.50
2022-08-20T04:00:52.242Z,9.07
2022-08-20T04:03:37.735Z,11.20
2022-08-20T04:06:23.086Z,9.18
2022-08-20T04:09:09.442Z,9.02
2022-08-20T04:11:58.708Z,9.32
2022-08-20T04:14:44.142Z,8.50
2022-08-20T04:17:29.435Z,8.65
2022-08-20T04:20:22.466Z,8.60
2022-08-20T04:23:08.626Z,9.23
2022-08-20T04:25:56.574Z,8.27
2022-08-20T04:28:42.215Z,8.50
2022-08-20T04:31:33.048Z,8.20
2022-08-20T04:34:19.423Z,8.98
2022-08-20T04:37:05.086Z,7.65
2022-08-20T04:40:09.269Z,8.77
2022-08-20T04:42:54.633Z,7.82
2022-08-20T04:45:40.321Z,7.82
2022-08-20T04:48:28.126Z,8.50
2022-08-20T04:51:15.070Z,8.73
2022-08-20T04:54:01.332Z,8.68
2022-08-20T04:56:48.175Z,9.13
2022-08-20T04:59:34.003Z,9.00
2022-08-20T05:02:20.199Z,8.93
2022-08-20T05:05:08.391Z,9.20
2022-08-20T05:07:54.285Z,8.10
2022-08-20T05:10:40.650Z,8.95
2022-08-20T05:13:27.570Z,9.50
2022-08-20T05:16:13.156Z,9.15
2022-08-20T05:18:58.278Z,10.40
2022-08-20T05:21:43.619Z,10.77
2022-08-20T05:24:28.891Z,9.90
2022-08-20T05:27:24.567Z,9.38
2022-08-20T05:30:13.469Z,11.02
2022-08-20T05:33:04.379Z,10.80
2022-08-20T05:35:52.508Z,10.80
2022-08-20T05:38:38.038Z,12.63
2022-08-20T05:41:29.416Z,11.63
2022-08-20T05:44:15.457Z,12.38
2022-08-20T05:47:01.869Z,12.38
2022-08-20T05:49:49.590Z,11.55
2022-08-20T05:52:35.239Z,11.32
2022-08-20T05:55:20.473Z,12.35
2022-08-20T05:58:09.141Z,11.80
2022-08-20T06:00:55.026Z,11.90
2022-08-20T06:03:59.043Z,11.43
2022-08-20T06:06:47.112Z,12.20
2022-08-20T06:09:33.479Z,11.93
2022-08-20T06:12:18.681Z,12.30
2022-08-20T06:15:06.631Z,11.80
2022-08-20T06:17:58.366Z,11.48
2022-08-20T06:20:46.015Z,11.80
2022-08-20T06:23:54.203Z,13.32
2022-08-20T06:26:37.037Z,12.90
2022-08-20T06:29:22.122Z,13.18
2022-08-20T06:32:07.936Z,13.43
2022-08-20T06:34:53.232Z,12.10
2022-08-20T06:37:40.284Z,13.20
2022-08-20T06:40:28.435Z,12.65
2022-08-20T06:43:13.967Z,13.02
2022-08-20T06:45:59.248Z,13.27
2022-08-20T06:48:44.554Z,12.05
2022-08-20T06:51:30.788Z,12.48
2022-08-20T06:54:15.824Z,12.15
2022-08-20T06:57:03.216Z,12.43
2022-08-20T06:59:54.352Z,12.85
2022-08-20T07:02:40.764Z,12.38
2022-08-20T07:05:26.708Z,12.63
2022-08-20T07:08:14.563Z,11.95
2022-08-20T07:10:59.895Z,12.35
2022-08-20T07:13:45.405Z,11.93
2022-08-20T07:16:31.129Z,12.23
2022-08-20T07:19:16.600Z,12.38
2022-08-20T07:22:02.018Z,12.40
2022-08-20T07:24:50.146Z,12.52
2022-08-20T07:27:35.678Z,10.35
2022-08-20T07:30:57.009Z,10.90
2022-08-20T07:33:44.604Z,10.48
2022-08-20T07:36:30.723Z,9.55
2022-08-20T07:39:15.997Z,8.52
2022-08-20T07:42:07.166Z,10.35
2022-08-20T07:44:52.666Z,10.68
2022-08-20T07:47:39.192Z,10.80
2022-08-20T07:50:26.527Z,9.45
2022-08-20T07:53:12.070Z,9.48
2022-08-20T07:55:59.308Z,9.02
2022-08-20T07:58:49.865Z,8.73
2022-08-20T08:01:35.376Z,9.25
2022-08-20T08:04:20.788Z,9.05
2022-08-20T08:07:06.879Z,10.45
2022-08-20T08:09:53.271Z,8.95
2022-08-20T08:12:43.228Z,9.30
2022-08-20T08:15:32.537Z,9.50
2022-08-20T08:18:26.797Z,9.68
2022-08-20T08:21:14.198Z,10.70
2022-08-20T08:23:59.593Z,10.05
2022-08-20T08:26:45.036Z,10.77
2022-08-20T08:29:30.415Z,10.50
2022-08-20T08:32:16.014Z,10.38
2022-08-20T08:35:06.079Z,10.20
2022-08-20T08:37:51.507Z,12.32
2022-08-20T08:40:36.903Z,10.40
2022-08-20T08:43:27.939Z,11.13
2022-08-20T08:46:21.527Z,11.35
2022-08-20T08:49:07.789Z,11.35
2022-08-20T08:52:04.431Z,11.40
2022-08-20T08:54:55.067Z,13.15
2022-08-20T08:57:41.333Z,12.50
2022-08-20T09:00:29.079Z,12.77
2022-08-20T09:03:29.361Z,12.35
2022-08-20T09:06:21.747Z,11.65
2022-08-20T09:09:17.835Z,12.10
2022-08-20T09:12:07.223Z,11.50
2022-08-20T09:14:52.656Z,12.52
2022-08-20T09:17:37.821Z,12.57
2022-08-20T09:20:27.278Z,12.15
2022-08-20T09:23:12.438Z,10.48
2022-08-20T09:25:58.312Z,11.70
2022-08-20T09:28:43.411Z,11.25
2022-08-20T09:31:28.914Z,11.75
2022-08-20T09:34:14.225Z,12.52
2022-08-20T09:36:59.494Z,11.63
2022-08-20T09:39:45.159Z,12.05
2022-08-20T09:42:36.196Z,12.10
2022-08-20T09:45:24.695Z,12.30
2022-08-20T09:48:10.205Z,12.27
2022-08-20T09:50:55.848Z,12.13
2022-08-20T09:53:41.627Z,13.05
2022-08-20T09:56:27.202Z,11.77
2022-08-20T09:59:15.363Z,12.82
2022-08-20T10:02:00.420Z,11.13
2022-08-20T10:04:45.797Z,11.43
2022-08-20T10:07:31.022Z,14.25
2022-08-20T10:10:16.523Z,12.93
2022-08-20T10:13:02.549Z,12.65
2022-08-20T10:15:47.771Z,14.35
2022-08-20T10:18:34.221Z,14.02
2022-08-20T10:21:19.643Z,12.82
2022-08-20T10:24:05.455Z,12.73
2022-08-20T10:26:50.859Z,13.25
2022-08-20T10:29:36.413Z,13.27
2022-08-20T10:32:21.858Z,13.80
2022-08-20T10:35:07.418Z,12.60
2022-08-20T10:37:52.866Z,13.52
2022-08-20T10:40:38.057Z,13.65
2022-08-20T10:43:23.515Z,13.50
2022-08-20T10:46:09.300Z,12.50
2022-08-20T10:48:54.686Z,12.57
2022-08-20T10:51:40.044Z,13.85
2022-08-20T10:54:25.973Z,13.23
2022-08-20T10:57:17.770Z,13.60
2022-08-20T11:00:05.566Z,12.48
2022-08-20T11:02:51.766Z,12.63
2022-08-20T11:05:37.356Z,12.60
2022-08-20T11:08:33.441Z,13.02
2022-08-20T11:11:19.983Z,13.70
2022-08-20T11:14:05.476Z,12.07
2022-08-20T11:16:50.834Z,13.18
2022-08-20T11:19:44.496Z,12.45
2022-08-20T11:22:29.809Z,12.25
2022-08-20T11:25:15.580Z,11.77
2022-08-20T11:28:00.734Z,11.27
2022-08-20T11:30:46.556Z,9.93
2022-08-20T11:33:32.098Z,11.95
2022-08-20T11:36:17.482Z,11.45
2022-08-20T11:39:03.659Z,10.73
2022-08-20T11:41:48.967Z,12.65
2022-08-20T11:44:40.802Z,12.35
2022-08-20T11:47:30.081Z,12.50
2022-08-20T11:50:19.548Z,13.95
2022-08-20T11:53:05.661Z,13.25
2022-08-20T11:55:53.026Z,11.80
2022-08-20T11:58:38.378Z,13.25
2022-08-20T12:01:23.902Z,12.55
2022-08-20T12:04:09.242Z,13.57
2022-08-20T12:06:54.551Z,14.05
2022-08-20T12:09:51.096Z,13.52
2022-08-20T12:12:38.884Z,12.02
2022-08-20T12:15:24.227Z,14.60
2022-08-20T12:18:10.408Z,15.77
2022-08-20T12:20:55.797Z,14.40
2022-08-20T12:23:41.272Z,13.95
2022-08-20T12:26:26.756Z,14.55
2022-08-20T12:29:12.150Z,13.93
2022-08-20T12:31:57.328Z,12.90
2022-08-20T12:34:43.118Z,14.18
2022-08-20T12:37:30.462Z,15.35
2022-08-20T12:40:31.815Z,15.27
2022-08-20T12:43:22.875Z,16.50
2022-08-20T12:46:10.209Z,13.93
2022-08-20T12:48:55.447Z,12.75
2022-08-20T12:51:40.833Z,12.73
2022-08-20T12:54:26.251Z,13.60
2022-08-20T12:57:16.638Z,13.10
2022-08-20T13:00:15.398Z,12.38
2022-08-20T13:03:02.730Z,13.75
2022-08-20T13:05:48.939Z,14.63
2022-08-20T13:08:34.308Z,13.80
2022-08-20T13:11:19.494Z,15.05
2022-08-20T13:14:05.307Z,14.77
2022-08-20T13:16:56.497Z,14.07
2022-08-20T13:19:41.605Z,14.25
2022-08-20T13:22:27.000Z,14.82
2022-08-20T13:25:13.619Z,16.13
2022-08-20T13:28:00.772Z,16.70
2022-08-20T13:30:45.951Z,15.32
2022-08-20T13:33:31.289Z,16.33
2022-08-20T13:36:16.848Z,17.10
2022-08-20T13:39:07.522Z,17.70
2022-08-20T13:41:52.575Z,14.55
2022-08-20T13:44:38.538Z,15.27
2022-08-20T13:47:25.298Z,14.80
2022-08-20T13:50:17.476Z,15.05
2022-08-20T13:53:02.908Z,14.23
2022-08-20T13:55:48.053Z,14.95
2022-08-20T13:58:33.559Z,15.75
2022-08-20T14:01:18.854Z,15.18
2022-08-20T14:04:04.451Z,16.35
2022-08-20T14:06:49.821Z,17.45
2022-08-20T14:09:38.684Z,18.05
2022-08-20T14:12:24.496Z,18.08
2022-08-20T14:15:10.727Z,17.17
2022-08-20T14:17:57.491Z,18.00
2022-08-20T14:20:45.306Z,18.95
2022-08-20T14:23:31.059Z,19.55
2022-08-20T14:26:22.509Z,18.50
2022-08-20T14:29:07.827Z,18.38
2022-08-20T14:31:53.355Z,19.48
2022-08-20T14:34:39.788Z,20.33
2022-08-20T14:37:43.209Z,19.77
2022-08-20T14:40:28.872Z,20.85
2022-08-20T14:43:14.207Z,21.02
2022-08-20T14:45:59.512Z,20.52
2022-08-20T14:48:44.785Z,20.40
2022-08-20T14:51:38.790Z,22.48
2022-08-20T14:54:24.188Z,22.40
2022-08-20T14:57:13.421Z,21.30
2022-08-20T14:59:59.128Z,20.63
2022-08-20T15:02:45.297Z,20.98
2022-08-20T15:05:31.393Z,21.77
2022-08-20T15:08:16.448Z,20.85
2022-08-20T15:11:02.460Z,20.92
2022-08-20T15:13:48.012Z,20.63
2022-08-20T15:16:34.005Z,21.23
2022-08-20T15:19:19.660Z,18.67
2022-08-20T15:22:05.738Z,19.33
2022-08-20T15:24:51.494Z,19.77
2022-08-20T15:27:43.539Z,20.65
2022-08-20T15:30:30.155Z,20.10
2022-08-20T15:33:15.085Z,21.63
2022-08-20T15:36:00.364Z,19.98
2022-08-20T15:38:46.124Z,20.75
2022-08-20T15:41:34.544Z,20.05
2022-08-20T15:44:20.059Z,19.40
2022-08-20T15:47:20.298Z,20.98
2022-08-20T15:50:34.248Z,19.08
2022-08-20T15:53:35.615Z,18.98
2022-08-20T15:56:38.763Z,18.77
2022-08-20T15:59:47.629Z,17.20
2022-08-20T16:02:59.026Z,19.15
2022-08-20T16:06:03.310Z,19.02
2022-08-20T16:09:10.748Z,19.48
2022-08-20T16:11:58.835Z,18.73
2022-08-20T16:14:46.895Z,19.50
2022-08-20T16:17:42.484Z,19.02
2022-08-20T16:20:49.219Z,18.10
2022-08-20T16:23:38.782Z,18.35
2022-08-20T16:27:09.179Z,20.08
2022-08-20T16:30:00.785Z,18.55
2022-08-20T16:32:53.094Z,19.23
2022-08-20T16:35:54.505Z,19.15
2022-08-20T16:38:48.191Z,20.15
2022-08-20T16:41:58.162Z,19.65
2022-08-20T16:44:54.450Z,21.15
2022-08-20T16:47:41.092Z,21.25
2022-08-20T16:50:31.745Z,21.13
2022-08-20T16:53:21.331Z,20.48
2022-08-20T16:56:06.598Z,21.92
2022-08-20T16:58:52.158Z,22.63
2022-08-20T17:01:38.178Z,22.00
2022-08-20T17:04:23.541Z,21.25
2022-08-20T17:07:08.911Z,21.23
2022-08-20T17:10:12.076Z,23.55
2022-08-20T17:13:03.745Z,23.08
2022-08-20T17:16:01.559Z,25.05
2022-08-20T17:18:48.247Z,23.83
2022-08-20T17:21:38.250Z,22.88
2022-08-20T17:24:30.191Z,23.27
2022-08-20T17:27:33.339Z,22.38
2022-08-20T17:30:21.473Z,22.13
2022-08-20T17:33:18.425Z,22.42
2022-08-20T17:36:22.206Z,23.85
2022-08-20T17:39:16.561Z,22.42
2022-08-20T17:42:17.271Z,23.38
2022-08-20T17:45:11.855Z,23.95
2022-08-20T17:47:59.743Z,22.58
2022-08-20T17:50:45.131Z,22.20
2022-08-20T17:53:35.779Z,22.48
2022-08-20T17:56:28.234Z,22.33
2022-08-20T18:00:00.265Z,23.05
2022-08-20T18:02:34.805Z,22.48
2022-08-20T18:05:21.524Z,20.52
2022-08-20T18:08:19.654Z,17.80
2022-08-20T18:11:23.236Z,18.27
2022-08-20T18:14:25.820Z,18.00
2022-08-20T18:17:36.385Z,16.15
2022-08-20T18:20:42.847Z,16.60
2022-08-20T18:23:57.214Z,15.95
2022-08-20T18:26:56.752Z,14.63
2022-08-20T18:29:46.679Z,15.45
2022-08-20T18:32:37.983Z,13.85
2022-08-20T18:35:45.521Z,13.57
2022-08-20T18:38:34.446Z,12.95
2022-08-20T18:41:40.376Z,14.35
2022-08-20T18:44:41.935Z,13.88
2022-08-20T18:47:38.837Z,15.10
2022-08-20T18:50:39.115Z,14.13
2022-08-20T18:53:33.944Z,13.93
2022-08-20T18:56:34.987Z,14.57
2022-08-20T18:59:20.806Z,15.15
2022-08-20T19:02:26.203Z,14.85
2022-08-20T19:05:12.997Z,14.52
2022-08-20T19:08:01.421Z,15.45
2022-08-20T19:10:56.975Z,15.82
2022-08-20T19:13:51.751Z,15.02
2022-08-20T19:16:42.057Z,14.48
2022-08-20T19:19:32.662Z,15.48
2022-08-20T19:22:21.016Z,15.88
2022-08-20T19:25:07.180Z,15.82
2022-08-20T19:27:53.372Z,15.52
2022-08-20T19:30:41.517Z,15.73
2022-08-20T19:33:31.503Z,16.95
2022-08-20T19:36:30.206Z,15.77
2022-08-20T19:39:18.494Z,14.60
2022-08-20T19:42:15.267Z,15.15
2022-08-20T19:45:05.974Z,13.85
2022-08-20T19:47:57.478Z,15.70
2022-08-20T19:50:52.233Z,15.68
2022-08-20T19:53:46.090Z,15.80
2022-08-20T19:56:40.713Z,16.27
2022-08-20T19:59:26.344Z,16.67
2022-08-20T20:02:20.565Z,15.60
2022-08-20T20:05:09.232Z,16.33
2022-08-20T20:07:58.506Z,15.75
2022-08-20T20:10:49.575Z,15.45
2022-08-20T20:13:37.647Z,16.23
2022-08-20T20:16:25.158Z,16.45
2022-08-20T20:19:28.627Z,16.48
2022-08-20T20:22:30.806Z,15.77
2022-08-20T20:25:22.072Z,16.60
2022-08-20T20:28:28.979Z,15.63
2022-08-20T20:31:25.280Z,16.30
2022-08-20T20:34:13.562Z,14.88
2022-08-20T20:37:11.550Z,15.68
2022-08-20T20:40:22.706Z,16.40
2022-08-20T20:43:10.567Z,13.98
2022-08-20T20:46:16.569Z,13.65
2022-08-20T20:49:25.343Z,13.93
2022-08-20T20:52:21.847Z,13.60
2022-08-20T20:55:20.890Z,13.07
2022-08-20T20:58:06.229Z,13.85
2022-08-20T21:00:51.606Z,12.73
2022-08-20T21:03:36.897Z,14.13
2022-08-20T21:06:26.942Z,12.68
2022-08-20T21:09:12.342Z,13.07
2022-08-20T21:11:57.447Z,12.52
2022-08-20T21:14:44.968Z,12.10
2022-08-20T21:17:30.424Z,12.60
2022-08-20T21:20:16.273Z,12.32
2022-08-20T21:23:01.520Z,12.63
2022-08-20T21:25:46.937Z,14.70
2022-08-20T21:28:33.746Z,14.48
2022-08-20T21:31:18.843Z,14.13
2022-08-20T21:34:04.329Z,14.10
2022-08-20T21:36:49.861Z,14.23
2022-08-20T21:39:35.341Z,13.50
2022-08-20T21:42:29.343Z,14.82
2022-08-20T21:45:18.509Z,13.95
2022-08-20T21:48:05.304Z,15.20
2022-08-20T21:50:51.259Z,14.75
2022-08-20T21:53:36.639Z,12.70
2022-08-20T21:56:22.474Z,13.02
2022-08-20T21:59:09.358Z,14.52
2022-08-20T22:01:55.023Z,15.23
2022-08-20T22:04:41.030Z,13.70
2022-08-20T22:07:26.462Z,17.30
2022-08-20T22:10:13.098Z,15.73
2022-08-20T22:12:58.445Z,16.77
2022-08-20T22:15:43.706Z,17.65
2022-08-20T22:18:29.198Z,15.70
2022-08-20T22:21:25.014Z,14.73
2022-08-20T22:24:11.433Z,15.98
2022-08-20T22:26:57.017Z,14.32
2022-08-20T22:29:42.421Z,14.65
2022-08-20T22:32:33.472Z,15.00
2022-08-20T22:35:34.048Z,16.10
2022-08-20T22:38:19.524Z,15.82
2022-08-20T22:41:09.417Z,16.08
2022-08-20T22:43:56.867Z,16.25
2022-08-20T22:46:47.543Z,15.60
2022-08-20T22:49:39.616Z,16.20
2022-08-20T22:52:25.496Z,16.30
2022-08-20T22:55:12.202Z,18.13
2022-08-20T22:57:57.622Z,18.05
2022-08-20T23:00:45.291Z,17.08
2022-08-20T23:03:39.265Z,17.98
2022-08-20T23:06:29.470Z,17.95
2022-08-20T23:09:14.549Z,15.88
2022-08-20T23:12:08.158Z,17.40
2022-08-20T23:14:54.804Z,17.80
2022-08-20T23:17:40.265Z,16.65
2022-08-20T23:20:25.829Z,19.67
2022-08-20T23:23:12.083Z,16.75
2022-08-20T23:25:57.744Z,17.75
2022-08-20T23:28:43.032Z,16.25
2022-08-20T23:31:28.523Z,18.08
2022-08-20T23:34:13.760Z,17.10
2022-08-20T23:37:00.974Z,16.77
2022-08-20T23:39:46.447Z,17.02
2022-08-20T23:42:31.937Z,17.58
2022-08-20T23:45:17.626Z,17.73
2022-08-20T23:48:03.519Z,18.05
2022-08-20T23:50:48.607Z,17.02
2022-08-20T23:53:34.360Z,15.13
2022-08-20T23:56:19.559Z,17.75
2022-08-20T23:59:05.785Z,17.33
